PWSweather.com
Personal Weather Stations
Station Observations
SELKIRK1
Ontario, Selkirk, ON N0A 1P0

OntarioSelkirk, ON N0A 1P0

Lat: 42.8083652, Lon: -79.94971040000001

Elevation: 583

Station Type: Acurite 5 in 1

http://gavinsurf.com

High Low Average
Temperature 81.7°F27.6°C 58.5°F14.7°C 73.6°F23.1°C
Dew Point 59.6°F15.3°C 50.7°F10.4°C 53.4°F11.9°C
Winds 18.4 mph 29.6 kmh 2.3 mph 3.7 kmh 9.0 mph SW14.5 kmh SW
Wind Gusts 23.0 mph37.0 kmh 2.3 mph3.7 kmh 10.0 mph16.1 kmh
Humidity 77% 39% 51%
Pressure 31.83 in1077.9 mb 31.83 in1077.9 mb -
Precipitation 0.68 in17.3 mm - -
Hour Temp Dew Point Humidity Winds Wind Gusts Pressure Precip Precip Rate Daily Precip Total
11:30 AM 75.4°F24.1°C 59.6°F15.3°C 58% 11.5 mph N18.5 kmh N 16.1 mph25.9 kmh 31.83 in1077.9 mb - 0.01 in0.3 mm 0.68 in17.3 mm
11:35 AM 78.5°F25.8°C 56.0°F13.3°C 46% 11.5 mph NW18.5 kmh NW 12.7 mph20.4 kmh 31.83 in1077.9 mb - 0.01 in0.3 mm 0.68 in17.3 mm
11:40 AM 79.0°F26.1°C 57.0°F13.9°C 47% 13.8 mph NNW22.2 kmh NNW 17.3 mph27.8 kmh 31.83 in1077.9 mb - 0.01 in0.3 mm 0.68 in17.3 mm
11:45 AM 79.5°F26.4°C 56.9°F13.8°C 46% 8.1 mph NNW13.0 kmh NNW 9.2 mph14.8 kmh 31.83 in1077.9 mb - 0.01 in0.3 mm 0.68 in17.3 mm
11:50 AM 79.7°F26.5°C 57.1°F13.9°C 46% 10.4 mph NNE16.7 kmh NNE 12.7 mph20.4 kmh 31.83 in1077.9 mb - 0.01 in0.3 mm 0.68 in17.3 mm
11:55 AM 79.7°F26.5°C 55.8°F13.2°C 44% 11.5 mph NW18.5 kmh NW 15.0 mph24.1 kmh 31.83 in1077.9 mb - 0.01 in0.3 mm 0.68 in17.3 mm
12:00 PM 80.1°F26.7°C 56.8°F13.8°C 45% 13.8 mph N22.2 kmh N 19.6 mph31.5 kmh 31.83 in1077.9 mb - 0.00 in0.0 mm 0.68 in17.3 mm
12:10 PM 80.7°F27.1°C 58.0°F14.4°C 46% 9.2 mph N14.8 kmh N 11.5 mph18.5 kmh 31.83 in1077.9 mb - 0.00 in0.0 mm 0.68 in17.3 mm
12:15 PM 80.5°F26.9°C 56.6°F13.7°C 44% 12.7 mph NNW20.4 kmh NNW 19.6 mph31.5 kmh 31.83 in1077.9 mb - 0.00 in0.0 mm 0.68 in17.3 mm
12:20 PM 80.3°F26.8°C 56.4°F13.6°C 44% 11.5 mph N18.5 kmh N 15.0 mph24.1 kmh 31.83 in1077.9 mb - 0.00 in0.0 mm 0.68 in17.3 mm
12:25 PM 80.4°F26.9°C 56.5°F13.6°C 44% 12.7 mph NNW20.4 kmh NNW 16.1 mph25.9 kmh 31.83 in1077.9 mb - 0.00 in0.0 mm 0.68 in17.3 mm
12:30 PM 80.3°F26.8°C 56.4°F13.6°C 44% 13.8 mph NNW22.2 kmh NNW 13.8 mph22.2 kmh 31.83 in1077.9 mb - 0.00 in0.0 mm 0.68 in17.3 mm
12:35 PM 80.4°F26.9°C 57.1°F13.9°C 45% 18.4 mph N29.6 kmh N 18.4 mph29.6 kmh 31.83 in1077.9 mb - 0.00 in0.0 mm 0.68 in17.3 mm
12:40 PM 80.2°F26.8°C 55.6°F13.1°C 43% 18.4 mph NW29.6 kmh NW 21.9 mph35.2 kmh 31.83 in1077.9 mb - 0.00 in0.0 mm 0.68 in17.3 mm
12:45 PM 80.4°F26.9°C 57.7°F14.3°C 46% 10.4 mph N16.7 kmh N 13.8 mph22.2 kmh 31.83 in1077.9 mb - 0.00 in0.0 mm 0.68 in17.3 mm
12:50 PM 80.7°F27.1°C 56.8°F13.8°C 44% 10.4 mph N16.7 kmh N 15.0 mph24.1 kmh 31.83 in1077.9 mb - 0.00 in0.0 mm 0.68 in17.3 mm
12:55 PM 81.1°F27.3°C 57.1°F13.9°C 44% 10.4 mph N16.7 kmh N 16.1 mph25.9 kmh 31.83 in1077.9 mb - 0.00 in0.0 mm 0.68 in17.3 mm
01:00 PM 81.0°F27.2°C 57.0°F13.9°C 44% 11.5 mph N18.5 kmh N 15.0 mph24.1 kmh 31.83 in1077.9 mb - 0.00 in0.0 mm 0.68 in17.3 mm
01:10 PM 81.0°F27.2°C 55.7°F13.2°C 42% 12.7 mph NNW20.4 kmh NNW 15.0 mph24.1 kmh 31.83 in1077.9 mb - 0.00 in0.0 mm 0.68 in17.3 mm
01:15 PM 81.4°F27.4°C 56.8°F13.8°C 43% 8.1 mph NW13.0 kmh NW 11.5 mph18.5 kmh 31.83 in1077.9 mb - 0.00 in0.0 mm 0.68 in17.3 mm
01:20 PM 81.7°F27.6°C 55.0°F12.8°C 40% 9.2 mph NNW14.8 kmh NNW 11.5 mph18.5 kmh 31.83 in1077.9 mb - 0.00 in0.0 mm 0.68 in17.3 mm
01:25 PM 81.7°F27.6°C 55.0°F12.8°C 40% 11.5 mph N18.5 kmh N 11.5 mph18.5 kmh 31.83 in1077.9 mb - 0.00 in0.0 mm 0.68 in17.3 mm
01:30 PM 81.2°F27.3°C 55.2°F12.9°C 41% 12.7 mph NW20.4 kmh NW 16.1 mph25.9 kmh 31.83 in1077.9 mb - 0.00 in0.0 mm 0.68 in17.3 mm
01:35 PM 81.0°F27.2°C 55.1°F12.8°C 41% 11.5 mph NW18.5 kmh NW 15.0 mph24.1 kmh 31.83 in1077.9 mb - 0.00 in0.0 mm 0.68 in17.3 mm
01:40 PM 81.3°F27.4°C 54.6°F12.6°C 40% 15.0 mph N24.1 kmh N 16.1 mph25.9 kmh 31.83 in1077.9 mb - 0.00 in0.0 mm 0.68 in17.3 mm
01:45 PM 81.2°F27.3°C 55.2°F12.9°C 41% 10.4 mph NW16.7 kmh NW 11.5 mph18.5 kmh 31.83 in1077.9 mb - 0.00 in0.0 mm 0.68 in17.3 mm
01:50 PM 81.2°F27.3°C 56.0°F13.3°C 42% 11.5 mph NNW18.5 kmh NNW 13.8 mph22.2 kmh 31.83 in1077.9 mb - 0.00 in0.0 mm 0.68 in17.3 mm
01:55 PM 81.2°F27.3°C 55.9°F13.3°C 42% 11.5 mph NNW18.5 kmh NNW 17.3 mph27.8 kmh 31.83 in1077.9 mb - 0.00 in0.0 mm 0.68 in17.3 mm
02:00 PM 81.3°F27.4°C 56.0°F13.3°C 42% 11.5 mph NNW18.5 kmh NNW 15.0 mph24.1 kmh 31.83 in1077.9 mb - 0.00 in0.0 mm 0.68 in17.3 mm
02:10 PM 81.7°F27.6°C 57.0°F13.9°C 43% 9.2 mph NNW14.8 kmh NNW 9.2 mph14.8 kmh 31.83 in1077.9 mb - 0.00 in0.0 mm 0.68 in17.3 mm
02:15 PM 81.6°F27.6°C 56.3°F13.5°C 42% 13.8 mph N22.2 kmh N 16.1 mph25.9 kmh 31.83 in1077.9 mb - 0.00 in0.0 mm 0.68 in17.3 mm
02:20 PM 80.9°F27.2°C 55.7°F13.2°C 42% 12.7 mph NNE20.4 kmh NNE 15.0 mph24.1 kmh 31.83 in1077.9 mb - 0.00 in0.0 mm 0.68 in17.3 mm
02:25 PM 81.3°F27.4°C 54.6°F12.6°C 40% 10.4 mph NW16.7 kmh NW 12.7 mph20.4 kmh 31.83 in1077.9 mb - 0.00 in0.0 mm 0.68 in17.3 mm
02:30 PM 81.2°F27.3°C 55.2°F12.9°C 41% 15.0 mph NW24.1 kmh NW 13.8 mph22.2 kmh 31.83 in1077.9 mb - 0.00 in0.0 mm 0.68 in17.3 mm
02:35 PM 81.2°F27.3°C 55.2°F12.9°C 41% 8.1 mph NW13.0 kmh NW 10.4 mph16.7 kmh 31.83 in1077.9 mb - 0.00 in0.0 mm 0.68 in17.3 mm
02:40 PM 81.0°F27.2°C 55.1°F12.8°C 41% 9.2 mph N14.8 kmh N 9.2 mph14.8 kmh 31.83 in1077.9 mb - 0.00 in0.0 mm 0.68 in17.3 mm
02:45 PM 81.6°F27.6°C 55.0°F12.8°C 40% 11.5 mph NNW18.5 kmh NNW 16.1 mph25.9 kmh 31.83 in1077.9 mb - 0.00 in0.0 mm 0.68 in17.3 mm
02:50 PM 81.3°F27.4°C 54.7°F12.6°C 40% 9.2 mph NNE14.8 kmh NNE 11.5 mph18.5 kmh 31.83 in1077.9 mb - 0.00 in0.0 mm 0.68 in17.3 mm
02:55 PM 81.2°F27.3°C 54.5°F12.5°C 40% 17.3 mph NNW27.8 kmh NNW 21.9 mph35.2 kmh 31.83 in1077.9 mb - 0.00 in0.0 mm 0.68 in17.3 mm
03:00 PM 81.1°F27.3°C 55.9°F13.3°C 42% 8.1 mph NNW13.0 kmh NNW 11.5 mph18.5 kmh 31.83 in1077.9 mb - 0.00 in0.0 mm 0.68 in17.3 mm
03:10 PM 81.2°F27.3°C 54.6°F12.6°C 40% 10.4 mph N16.7 kmh N 12.7 mph20.4 kmh 31.83 in1077.9 mb - 0.00 in0.0 mm 0.68 in17.3 mm
03:15 PM 80.6°F27.0°C 54.7°F12.6°C 41% 12.7 mph NNE20.4 kmh NNE 10.4 mph16.7 kmh 31.83 in1077.9 mb - 0.00 in0.0 mm 0.68 in17.3 mm
03:20 PM 81.0°F27.2°C 55.1°F12.8°C 41% 9.2 mph NW14.8 kmh NW 11.5 mph18.5 kmh 31.83 in1077.9 mb - 0.00 in0.0 mm 0.68 in17.3 mm
03:25 PM 81.0°F27.2°C 54.4°F12.4°C 40% 12.7 mph NNW20.4 kmh NNW 17.3 mph27.8 kmh 31.83 in1077.9 mb - 0.00 in0.0 mm 0.68 in17.3 mm
03:30 PM 80.8°F27.1°C 54.2°F12.3°C 40% 12.7 mph N20.4 kmh N 17.3 mph27.8 kmh 31.83 in1077.9 mb - 0.00 in0.0 mm 0.68 in17.3 mm
03:35 PM 80.7°F27.1°C 53.4°F11.9°C 39% 10.4 mph NW16.7 kmh NW 13.8 mph22.2 kmh 31.83 in1077.9 mb - 0.00 in0.0 mm 0.68 in17.3 mm
03:40 PM 80.3°F26.8°C 54.4°F12.4°C 41% 15.0 mph NNW24.1 kmh NNW 18.4 mph29.6 kmh 31.83 in1077.9 mb - 0.00 in0.0 mm 0.68 in17.3 mm
03:45 PM 80.4°F26.9°C 54.5°F12.5°C 41% 9.2 mph NW14.8 kmh NW 13.8 mph22.2 kmh 31.83 in1077.9 mb - 0.00 in0.0 mm 0.68 in17.3 mm
03:50 PM 80.7°F27.1°C 54.8°F12.7°C 41% 8.1 mph NNW13.0 kmh NNW 9.2 mph14.8 kmh 31.83 in1077.9 mb - 0.00 in0.0 mm 0.68 in17.3 mm
03:55 PM 80.8°F27.1°C 55.6°F13.1°C 42% 9.2 mph N14.8 kmh N 12.7 mph20.4 kmh 31.83 in1077.9 mb - 0.00 in0.0 mm 0.68 in17.3 mm
04:00 PM 80.8°F27.1°C 54.9°F12.7°C 41% 15.0 mph N24.1 kmh N 13.8 mph22.2 kmh 31.83 in1077.9 mb - 0.00 in0.0 mm 0.68 in17.3 mm
04:10 PM 79.6°F26.4°C 53.8°F12.1°C 41% 16.1 mph NW25.9 kmh NW 18.4 mph29.6 kmh 31.83 in1077.9 mb - 0.00 in0.0 mm 0.68 in17.3 mm
04:15 PM 79.5°F26.4°C 53.0°F11.7°C 40% 16.1 mph NNE25.9 kmh NNE 23.0 mph37.0 kmh 31.83 in1077.9 mb - 0.00 in0.0 mm 0.68 in17.3 mm
04:20 PM 79.4°F26.3°C 53.6°F12.0°C 41% 15.0 mph N24.1 kmh N 17.3 mph27.8 kmh 31.83 in1077.9 mb - 0.00 in0.0 mm 0.68 in17.3 mm
04:25 PM 78.8°F26.0°C 53.1°F11.7°C 41% 12.7 mph NW20.4 kmh NW 13.8 mph22.2 kmh 31.83 in1077.9 mb - 0.00 in0.0 mm 0.68 in17.3 mm
04:30 PM 78.8°F26.0°C 53.8°F12.1°C 42% 10.4 mph N16.7 kmh N 12.7 mph20.4 kmh 31.83 in1077.9 mb - 0.00 in0.0 mm 0.68 in17.3 mm
04:35 PM 78.8°F26.0°C 53.1°F11.7°C 41% 11.5 mph NW18.5 kmh NW 13.8 mph22.2 kmh 31.83 in1077.9 mb - 0.00 in0.0 mm 0.68 in17.3 mm
04:40 PM 79.0°F26.1°C 53.3°F11.8°C 41% 8.1 mph NW13.0 kmh NW 10.4 mph16.7 kmh 31.83 in1077.9 mb - 0.00 in0.0 mm 0.68 in17.3 mm
04:45 PM 78.8°F26.0°C 52.4°F11.3°C 40% 10.4 mph NNE16.7 kmh NNE 16.1 mph25.9 kmh 31.83 in1077.9 mb - 0.00 in0.0 mm 0.68 in17.3 mm
04:50 PM 78.8°F26.0°C 52.4°F11.3°C 40% 16.1 mph NNE25.9 kmh NNE 16.1 mph25.9 kmh 31.83 in1077.9 mb - 0.00 in0.0 mm 0.68 in17.3 mm
04:55 PM 78.3°F25.7°C 52.0°F11.1°C 40% 12.7 mph NNW20.4 kmh NNW 15.0 mph24.1 kmh 31.83 in1077.9 mb - 0.00 in0.0 mm 0.68 in17.3 mm
05:00 PM 78.6°F25.9°C 52.2°F11.2°C 40% 12.7 mph NNW20.4 kmh NNW 13.8 mph22.2 kmh 31.83 in1077.9 mb - 0.00 in0.0 mm 0.68 in17.3 mm
05:10 PM 78.1°F25.6°C 51.1°F10.6°C 39% 12.7 mph N20.4 kmh N 15.0 mph24.1 kmh 31.83 in1077.9 mb - 0.00 in0.0 mm 0.68 in17.3 mm
05:15 PM 78.1°F25.6°C 51.8°F11.0°C 40% 9.2 mph N14.8 kmh N 11.5 mph18.5 kmh 31.83 in1077.9 mb - 0.00 in0.0 mm 0.68 in17.3 mm
05:20 PM 78.1°F25.6°C 51.8°F11.0°C 40% 5.8 mph NNW9.3 kmh NNW 11.5 mph18.5 kmh 31.83 in1077.9 mb - 0.00 in0.0 mm 0.68 in17.3 mm
05:25 PM 77.5°F25.3°C 52.0°F11.1°C 41% 11.5 mph NNE18.5 kmh NNE 17.3 mph27.8 kmh 31.83 in1077.9 mb - 0.00 in0.0 mm 0.68 in17.3 mm
05:30 PM 77.4°F25.2°C 51.8°F11.0°C 41% 10.4 mph NNE16.7 kmh NNE 11.5 mph18.5 kmh 31.83 in1077.9 mb - 0.00 in0.0 mm 0.68 in17.3 mm
05:35 PM 77.2°F25.1°C 51.0°F10.6°C 40% 11.5 mph N18.5 kmh N 16.1 mph25.9 kmh 31.83 in1077.9 mb - 0.00 in0.0 mm 0.68 in17.3 mm
05:40 PM 77.0°F25.0°C 50.8°F10.4°C 40% 10.4 mph N16.7 kmh N 15.0 mph24.1 kmh 31.83 in1077.9 mb - 0.00 in0.0 mm 0.68 in17.3 mm
05:45 PM 76.8°F24.9°C 51.3°F10.7°C 41% 9.2 mph N14.8 kmh N 12.7 mph20.4 kmh 31.83 in1077.9 mb - 0.00 in0.0 mm 0.68 in17.3 mm
05:50 PM 76.6°F24.8°C 51.2°F10.7°C 41% 10.4 mph NE16.7 kmh NE 12.7 mph20.4 kmh 31.83 in1077.9 mb - 0.00 in0.0 mm 0.68 in17.3 mm
05:55 PM 76.5°F24.7°C 51.0°F10.6°C 41% 10.4 mph N16.7 kmh N 15.0 mph24.1 kmh 31.83 in1077.9 mb - 0.00 in0.0 mm 0.68 in17.3 mm
06:00 PM 76.2°F24.6°C 51.5°F10.8°C 42% 9.2 mph N14.8 kmh N 12.7 mph20.4 kmh 31.83 in1077.9 mb - 0.00 in0.0 mm 0.68 in17.3 mm
06:10 PM 75.9°F24.4°C 51.1°F10.6°C 42% 9.2 mph N14.8 kmh N 10.4 mph16.7 kmh 31.83 in1077.9 mb - 0.00 in0.0 mm 0.68 in17.3 mm
06:15 PM 75.6°F24.2°C 51.5°F10.8°C 43% 6.9 mph N11.1 kmh N 15.0 mph24.1 kmh 31.83 in1077.9 mb - 0.00 in0.0 mm 0.68 in17.3 mm
06:20 PM 75.4°F24.1°C 51.9°F11.1°C 44% 8.1 mph NNW13.0 kmh NNW 9.2 mph14.8 kmh 31.83 in1077.9 mb - 0.00 in0.0 mm 0.68 in17.3 mm
06:25 PM 75.4°F24.1°C 51.3°F10.7°C 43% 8.1 mph N13.0 kmh N 8.1 mph13.0 kmh 31.83 in1077.9 mb - 0.00 in0.0 mm 0.68 in17.3 mm
06:30 PM 75.2°F24.0°C 51.8°F11.0°C 44% 8.1 mph NNE13.0 kmh NNE 10.4 mph16.7 kmh 31.83 in1077.9 mb - 0.00 in0.0 mm 0.68 in17.3 mm
06:35 PM 75.2°F24.0°C 51.8°F11.0°C 44% 8.1 mph N13.0 kmh N 10.4 mph16.7 kmh 31.83 in1077.9 mb - 0.00 in0.0 mm 0.68 in17.3 mm
06:40 PM 74.9°F23.8°C 52.7°F11.5°C 46% 5.8 mph N9.3 kmh N 9.2 mph14.8 kmh 31.83 in1077.9 mb - 0.00 in0.0 mm 0.68 in17.3 mm
06:45 PM 74.9°F23.8°C 52.7°F11.5°C 46% 6.9 mph N11.1 kmh N 8.1 mph13.0 kmh 31.83 in1077.9 mb - 0.00 in0.0 mm 0.68 in17.3 mm
06:50 PM 74.7°F23.7°C 53.1°F11.7°C 47% 8.1 mph N13.0 kmh N 9.2 mph14.8 kmh 31.83 in1077.9 mb - 0.00 in0.0 mm 0.68 in17.3 mm
06:55 PM 74.7°F23.7°C 52.5°F11.4°C 46% 6.9 mph N11.1 kmh N 6.9 mph11.1 kmh 31.83 in1077.9 mb - 0.00 in0.0 mm 0.68 in17.3 mm
07:00 PM 74.1°F23.4°C 52.0°F11.1°C 46% 5.8 mph N9.3 kmh N 5.8 mph9.3 kmh 31.83 in1077.9 mb - 0.00 in0.0 mm 0.68 in17.3 mm
07:10 PM 72.9°F22.7°C 51.5°F10.8°C 47% 6.9 mph N11.1 kmh N 8.1 mph13.0 kmh 31.83 in1077.9 mb - 0.00 in0.0 mm 0.68 in17.3 mm
07:15 PM 72.7°F22.6°C 51.8°F11.0°C 48% 8.1 mph N13.0 kmh N 9.2 mph14.8 kmh 31.83 in1077.9 mb - 0.00 in0.0 mm 0.68 in17.3 mm
07:20 PM 72.3°F22.4°C 51.5°F10.8°C 48% 4.6 mph NNW7.4 kmh NNW 4.6 mph7.4 kmh 31.83 in1077.9 mb - 0.00 in0.0 mm 0.68 in17.3 mm
07:25 PM 72.3°F22.4°C 51.5°F10.8°C 48% 4.6 mph NNW7.4 kmh NNW 4.6 mph7.4 kmh 31.83 in1077.9 mb - 0.00 in0.0 mm 0.68 in17.3 mm
07:30 PM 71.6°F22.0°C 52.0°F11.1°C 50% 2.3 mph N3.7 kmh N 2.3 mph3.7 kmh 31.83 in1077.9 mb - 0.00 in0.0 mm 0.68 in17.3 mm
07:35 PM 71.1°F21.7°C 52.1°F11.2°C 51% 3.5 mph NNW5.6 kmh NNW 4.6 mph7.4 kmh 31.83 in1077.9 mb - 0.00 in0.0 mm 0.68 in17.3 mm
07:40 PM 70.5°F21.4°C 52.0°F11.1°C 52% 3.5 mph NNW5.6 kmh NNW 4.6 mph7.4 kmh 31.83 in1077.9 mb - 0.00 in0.0 mm 0.68 in17.3 mm
07:45 PM 70.2°F21.2°C 52.2°F11.2°C 53% 3.5 mph N5.6 kmh N 5.8 mph9.3 kmh 31.83 in1077.9 mb - 0.00 in0.0 mm 0.68 in17.3 mm
07:50 PM 69.8°F21.0°C 52.4°F11.3°C 54% 3.5 mph NNW5.6 kmh NNW 3.5 mph5.6 kmh 31.83 in1077.9 mb - 0.00 in0.0 mm 0.68 in17.3 mm
07:55 PM 69.8°F21.0°C 52.4°F11.3°C 54% 3.5 mph NNW5.6 kmh NNW 3.5 mph5.6 kmh 31.83 in1077.9 mb - 0.00 in0.0 mm 0.68 in17.3 mm
08:00 PM 68.9°F20.5°C 52.5°F11.4°C 56% 4.6 mph NNE7.4 kmh NNE 5.8 mph9.3 kmh 31.83 in1077.9 mb - 0.00 in0.0 mm 0.68 in17.3 mm
08:10 PM 68.6°F20.3°C 52.7°F11.5°C 57% 4.6 mph N7.4 kmh N 4.6 mph7.4 kmh 31.83 in1077.9 mb - 0.00 in0.0 mm 0.68 in17.3 mm
08:15 PM 67.8°F19.9°C 52.4°F11.3°C 58% 3.5 mph N5.6 kmh N 5.8 mph9.3 kmh 31.83 in1077.9 mb - 0.00 in0.0 mm 0.68 in17.3 mm
08:20 PM 67.5°F19.7°C 52.2°F11.2°C 58% 4.6 mph N7.4 kmh N 5.8 mph9.3 kmh 31.83 in1077.9 mb - 0.00 in0.0 mm 0.68 in17.3 mm
08:25 PM 67.3°F19.6°C 52.0°F11.1°C 58% 5.8 mph N9.3 kmh N 5.8 mph9.3 kmh 31.83 in1077.9 mb - 0.00 in0.0 mm 0.68 in17.3 mm
08:30 PM 67.1°F19.5°C 51.8°F11.0°C 58% 4.6 mph N7.4 kmh N 5.8 mph9.3 kmh 31.83 in1077.9 mb - 0.00 in0.0 mm 0.68 in17.3 mm
08:35 PM 66.8°F19.3°C 52.0°F11.1°C 59% 4.6 mph N7.4 kmh N 5.8 mph9.3 kmh 31.83 in1077.9 mb - 0.00 in0.0 mm 0.68 in17.3 mm
08:40 PM 66.4°F19.1°C 52.1°F11.2°C 60% 4.6 mph NE7.4 kmh NE 5.8 mph9.3 kmh 31.83 in1077.9 mb - 0.00 in0.0 mm 0.68 in17.3 mm
08:45 PM 65.9°F18.8°C 52.0°F11.1°C 61% 4.6 mph NNE7.4 kmh NNE 5.8 mph9.3 kmh 31.83 in1077.9 mb - 0.00 in0.0 mm 0.68 in17.3 mm
08:50 PM 65.7°F18.7°C 52.3°F11.3°C 62% 4.6 mph N7.4 kmh N 5.8 mph9.3 kmh 31.83 in1077.9 mb - 0.00 in0.0 mm 0.68 in17.3 mm
08:55 PM 65.3°F18.5°C 51.9°F11.1°C 62% 4.6 mph N7.4 kmh N 4.6 mph7.4 kmh 31.83 in1077.9 mb - 0.00 in0.0 mm 0.68 in17.3 mm
09:00 PM 65.1°F18.4°C 52.2°F11.2°C 63% 4.6 mph N7.4 kmh N 5.8 mph9.3 kmh 31.83 in1077.9 mb - 0.00 in0.0 mm 0.68 in17.3 mm
09:10 PM 65.0°F18.3°C 52.1°F11.2°C 63% 3.5 mph NNE5.6 kmh NNE 4.6 mph7.4 kmh 31.83 in1077.9 mb - 0.00 in0.0 mm 0.68 in17.3 mm
09:15 PM 64.8°F18.2°C 51.5°F10.8°C 62% 5.8 mph N9.3 kmh N 6.9 mph11.1 kmh 31.83 in1077.9 mb - 0.00 in0.0 mm 0.68 in17.3 mm
09:20 PM 65.0°F18.3°C 51.6°F10.9°C 62% 5.8 mph N9.3 kmh N 5.8 mph9.3 kmh 31.83 in1077.9 mb - 0.00 in0.0 mm 0.68 in17.3 mm
09:25 PM 64.4°F18.0°C 52.4°F11.3°C 65% 4.6 mph NNE7.4 kmh NNE 4.6 mph7.4 kmh 31.83 in1077.9 mb - 0.00 in0.0 mm 0.68 in17.3 mm
09:30 PM 64.0°F17.8°C 52.4°F11.3°C 66% 4.6 mph N7.4 kmh N 5.8 mph9.3 kmh 31.83 in1077.9 mb - 0.00 in0.0 mm 0.68 in17.3 mm
09:35 PM 63.9°F17.7°C 51.9°F11.1°C 65% 4.6 mph NNE7.4 kmh NNE 5.8 mph9.3 kmh 31.83 in1077.9 mb - 0.00 in0.0 mm 0.68 in17.3 mm
09:40 PM 63.5°F17.5°C 52.7°F11.5°C 68% 4.6 mph N7.4 kmh N 5.8 mph9.3 kmh 31.83 in1077.9 mb - 0.00 in0.0 mm 0.68 in17.3 mm
09:45 PM 63.2°F17.3°C 52.4°F11.3°C 68% 4.6 mph NNE7.4 kmh NNE 5.8 mph9.3 kmh 31.83 in1077.9 mb - 0.00 in0.0 mm 0.68 in17.3 mm
09:50 PM 63.0°F17.2°C 52.6°F11.4°C 69% 5.8 mph N9.3 kmh N 5.8 mph9.3 kmh 31.83 in1077.9 mb - 0.00 in0.0 mm 0.68 in17.3 mm
09:55 PM 62.3°F16.8°C 52.8°F11.6°C 71% 4.6 mph N7.4 kmh N 5.8 mph9.3 kmh 31.83 in1077.9 mb - 0.00 in0.0 mm 0.68 in17.3 mm
10:00 PM 62.3°F16.8°C 52.4°F11.3°C 70% 5.8 mph N9.3 kmh N 5.8 mph9.3 kmh 31.83 in1077.9 mb - 0.00 in0.0 mm 0.68 in17.3 mm
10:10 PM 62.3°F16.8°C 52.0°F11.1°C 69% 4.6 mph N7.4 kmh N 5.8 mph9.3 kmh 31.83 in1077.9 mb - 0.00 in0.0 mm 0.68 in17.3 mm
10:15 PM 62.4°F16.9°C 52.1°F11.2°C 69% 5.8 mph NNE9.3 kmh NNE 5.8 mph9.3 kmh 31.83 in1077.9 mb - 0.00 in0.0 mm 0.68 in17.3 mm
10:20 PM 62.1°F16.7°C 52.2°F11.2°C 70% 4.6 mph N7.4 kmh N 5.8 mph9.3 kmh 31.83 in1077.9 mb - 0.00 in0.0 mm 0.68 in17.3 mm
10:25 PM 62.1°F16.7°C 52.2°F11.2°C 70% 5.8 mph N9.3 kmh N 5.8 mph9.3 kmh 31.83 in1077.9 mb - 0.00 in0.0 mm 0.68 in17.3 mm
10:30 PM 61.9°F16.6°C 52.0°F11.1°C 70% 5.8 mph NNE9.3 kmh NNE 5.8 mph9.3 kmh 31.83 in1077.9 mb - 0.00 in0.0 mm 0.68 in17.3 mm
10:35 PM 61.9°F16.6°C 52.0°F11.1°C 70% 4.6 mph N7.4 kmh N 5.8 mph9.3 kmh 31.83 in1077.9 mb - 0.00 in0.0 mm 0.68 in17.3 mm
10:40 PM 61.7°F16.5°C 51.8°F11.0°C 70% 4.6 mph N7.4 kmh N 4.6 mph7.4 kmh 31.83 in1077.9 mb - 0.00 in0.0 mm 0.68 in17.3 mm
10:45 PM 61.7°F16.5°C 51.4°F10.8°C 69% 5.8 mph NE9.3 kmh NE 5.8 mph9.3 kmh 31.83 in1077.9 mb - 0.00 in0.0 mm 0.68 in17.3 mm
10:50 PM 61.5°F16.4°C 52.0°F11.1°C 71% 4.6 mph N7.4 kmh N 4.6 mph7.4 kmh 31.83 in1077.9 mb - 0.00 in0.0 mm 0.68 in17.3 mm
10:55 PM 60.6°F15.9°C 51.9°F11.1°C 73% 5.8 mph N9.3 kmh N 5.8 mph9.3 kmh 31.83 in1077.9 mb - 0.00 in0.0 mm 0.68 in17.3 mm
11:00 PM 60.6°F15.9°C 51.9°F11.1°C 73% 5.8 mph N9.3 kmh N 5.8 mph9.3 kmh 31.83 in1077.9 mb - 0.00 in0.0 mm 0.06 in1.5 mm
11:10 PM 61.0°F16.1°C 51.5°F10.8°C 71% 3.5 mph NNE5.6 kmh NNE 4.6 mph7.4 kmh 31.83 in1077.9 mb - 0.00 in0.0 mm 0.06 in1.5 mm
11:15 PM 60.2°F15.7°C 51.9°F11.1°C 74% 4.6 mph NNE7.4 kmh NNE 5.8 mph9.3 kmh 31.83 in1077.9 mb - 0.00 in0.0 mm 0.06 in1.5 mm
11:20 PM 60.3°F15.7°C 52.0°F11.1°C 74% 5.8 mph NE9.3 kmh NE 5.8 mph9.3 kmh 31.83 in1077.9 mb - 0.00 in0.0 mm 0.06 in1.5 mm
11:25 PM 59.9°F15.5°C 51.6°F10.9°C 74% 3.5 mph NE5.6 kmh NE 3.5 mph5.6 kmh 31.83 in1077.9 mb - 0.00 in0.0 mm 0.06 in1.5 mm
11:30 PM 59.6°F15.3°C 51.3°F10.7°C 74% 3.5 mph NNE5.6 kmh NNE 3.5 mph5.6 kmh 31.83 in1077.9 mb - 0.00 in0.0 mm 0.06 in1.5 mm
11:35 PM 59.4°F15.2°C 51.1°F10.6°C 74% 4.6 mph NNE7.4 kmh NNE 4.6 mph7.4 kmh 31.83 in1077.9 mb - 0.00 in0.0 mm 0.06 in1.5 mm
11:40 PM 59.4°F15.2°C 50.7°F10.4°C 73% 4.6 mph N7.4 kmh N 4.6 mph7.4 kmh 31.83 in1077.9 mb - 0.00 in0.0 mm 0.06 in1.5 mm
11:45 PM 59.1°F15.1°C 51.5°F10.8°C 76% 4.6 mph N7.4 kmh N 4.6 mph7.4 kmh 31.83 in1077.9 mb - 0.00 in0.0 mm 0.06 in1.5 mm
11:50 PM 58.8°F14.9°C 51.6°F10.9°C 77% 5.8 mph 9.3 kmh 5.8 mph9.3 kmh 31.83 in1077.9 mb - 0.00 in0.0 mm 0.06 in1.5 mm
11:55 PM 58.5°F14.7°C 51.3°F10.7°C 77% 5.8 mph N9.3 kmh N 5.8 mph9.3 kmh 31.83 in1077.9 mb - 0.00 in0.0 mm 0.06 in1.5 mm